Time;durP1;ratioP1;P1;durP2;ratioP2;P2;SDS_P1;SDS_P2;PMS_P1;PMS_P2;Temp;Humidity;BMP_temperature;BMP_pressure;BME280_temperature;BME280_humidity;BME280_pressure;Samples;Min_cycle;Max_cycle;Signal;HPM_P1;HPM_P2
2024/01/13 00:00:13;;;;;;;39.08;15.80;;;0.60;69.50;;;;;;4966998;28;20042;-62
2024/01/13 00:02:38;;;;;;;35.65;15.25;;;0.50;69.30;;;;;;4973226;28;20034;-62
2024/01/13 00:05:05;;;;;;;38.42;15.85;;;0.60;69.20;;;;;;4970371;28;20027;-60
2024/01/13 00:07:31;;;;;;;36.65;16.00;;;0.50;69.10;;;;;;4971884;28;20097;-62
2024/01/13 00:09:57;;;;;;;41.53;17.60;;;0.50;69.10;;;;;;4974293;28;20534;-62
2024/01/13 00:12:23;;;;;;;35.05;16.48;;;0.60;69.50;;;;;;4970939;28;20034;-62
2024/01/13 00:14:48;;;;;;;43.72;17.92;;;0.70;68.70;;;;;;4966390;28;20428;-61
2024/01/13 00:17:14;;;;;;;38.40;16.42;;;0.60;68.50;;;;;;4891441;28;20029;-62
2024/01/13 00:19:40;;;;;;;43.63;17.92;;;0.50;68.30;;;;;;4969689;28;20460;-62
2024/01/13 00:22:05;;;;;;;43.67;19.00;;;0.50;68.30;;;;;;4967627;28;20045;-62
2024/01/13 00:24:31;;;;;;;49.75;19.52;;;0.60;68.60;;;;;;4974260;28;20043;-61
2024/01/13 00:26:57;;;;;;;56.92;20.80;;;0.40;68.40;;;;;;4969590;28;20030;-61
2024/01/13 00:29:23;;;;;;;53.80;22.25;;;0.40;68.60;;;;;;4971272;28;20051;-63
2024/01/13 00:31:49;;;;;;;54.22;21.35;;;0.40;68.70;;;;;;4954857;28;20061;-62
2024/01/13 00:34:15;;;;;;;43.63;19.67;;;0.50;68.80;;;;;;4969448;28;20374;-63
2024/01/13 00:36:41;;;;;;;48.63;20.92;;;0.40;68.50;;;;;;4966448;28;20046;-61
2024/01/13 00:39:07;;;;;;;49.72;21.25;;;0.50;68.70;;;;;;4968204;28;20158;-62
2024/01/13 00:41:33;;;;;;;45.70;20.58;;;0.50;68.70;;;;;;4970455;28;20046;-61
2024/01/13 00:44:00;;;;;;;52.25;22.38;;;0.50;68.80;;;;;;4970356;28;20698;-62
2024/01/13 00:46:26;;;;;;;45.22;20.85;;;0.30;68.20;;;;;;4964028;28;20762;-61
2024/01/13 00:48:52;;;;;;;44.45;19.27;;;0.30;68.50;;;;;;4968244;28;20058;-62
2024/01/13 00:51:18;;;;;;;49.58;21.10;;;0.20;68.10;;;;;;4971938;28;20030;-62
2024/01/13 00:53:44;;;;;;;41.55;19.63;;;0.20;68.30;;;;;;4950040;28;20078;-62
2024/01/13 00:56:10;;;;;;;51.00;19.52;;;0.20;68.50;;;;;;4969080;28;20061;-62
2024/01/13 00:58:39;;;;;;;46.72;21.13;;;0.10;68.50;;;;;;4969914;28;20030;-62
2024/01/13 01:01:04;;;;;;;43.25;17.77;;;0.30;68.80;;;;;;4968505;28;20441;-61
2024/01/13 01:03:30;;;;;;;46.58;20.45;;;0.10;68.50;;;;;;4964968;28;20035;-61
2024/01/13 01:05:56;;;;;;;45.13;19.00;;;0.10;69.00;;;;;;4968105;28;20064;-61
2024/01/13 01:08:22;;;;;;;46.13;18.60;;;0.20;68.20;;;;;;4977318;28;20032;-63
2024/01/13 01:10:48;;;;;;;45.20;19.75;;;0.20;68.20;;;;;;4967457;28;20059;-62
2024/01/13 01:13:13;;;;;;;39.22;17.63;;;0.00;68.40;;;;;;4970310;28;20029;-63
2024/01/13 01:15:39;;;;;;;42.17;18.27;;;0.10;68.20;;;;;;4907711;28;20719;-61
2024/01/13 01:18:05;;;;;;;45.50;19.15;;;-0.20;68.30;;;;;;4965564;28;20038;-61
2024/01/13 01:20:31;;;;;;;43.42;19.73;;;0.00;68.70;;;;;;4964939;28;20031;-61
2024/01/13 01:22:56;;;;;;;50.67;19.35;;;-0.30;68.50;;;;;;4966645;28;20582;-63
2024/01/13 01:25:22;;;;;;;46.78;19.88;;;0.00;68.60;;;;;;4967444;28;20042;-61
2024/01/13 01:27:48;;;;;;;51.65;20.15;;;-0.10;68.80;;;;;;4969612;28;20035;-61
2024/01/13 01:30:13;;;;;;;45.40;19.95;;;-0.40;69.60;;;;;;4968339;28;20043;-61
2024/01/13 01:32:39;;;;;;;53.05;22.42;;;-0.20;69.10;;;;;;4946779;28;20462;-61
2024/01/13 01:35:06;;;;;;;55.17;21.45;;;-0.30;69.10;;;;;;4966925;28;20088;-62
2024/01/13 01:37:33;;;;;;;53.72;21.85;;;-0.30;69.30;;;;;;4971537;28;20031;-61
2024/01/13 01:39:58;;;;;;;53.28;21.73;;;-0.30;69.40;;;;;;4965095;28;20433;-61
2024/01/13 01:42:24;;;;;;;53.83;21.23;;;-0.30;69.40;;;;;;4970079;28;20035;-64
2024/01/13 01:44:50;;;;;;;48.65;19.83;;;-0.30;69.40;;;;;;4965112;28;20060;-62
2024/01/13 01:47:18;;;;;;;52.67;21.95;;;-0.10;69.50;;;;;;4972513;28;20023;-61
2024/01/13 01:49:44;;;;;;;50.30;20.00;;;-0.20;69.30;;;;;;4970973;28;20144;-62
2024/01/13 01:52:11;;;;;;;43.53;18.00;;;-0.30;68.90;;;;;;4971039;28;20113;-62
2024/01/13 01:54:36;;;;;;;51.65;21.73;;;0.00;68.80;;;;;;4954797;28;20035;-61
2024/01/13 01:57:03;;;;;;;50.10;20.60;;;-0.30;68.30;;;;;;4965636;28;20217;-62
2024/01/13 01:59:30;;;;;;;44.80;19.90;;;-0.30;68.50;;;;;;4971346;28;20050;-61
2024/01/13 02:01:58;;;;;;;50.13;19.58;;;-0.30;68.50;;;;;;4970781;28;20526;-61
2024/01/13 02:04:24;;;;;;;44.25;20.10;;;-0.30;68.80;;;;;;4968296;28;20041;-62
2024/01/13 02:06:50;;;;;;;43.90;19.08;;;-0.40;68.90;;;;;;4965740;28;20033;-61
2024/01/13 02:09:17;;;;;;;45.17;19.75;;;-0.40;68.60;;;;;;4967340;28;20049;-62
2024/01/13 02:11:43;;;;;;;49.15;21.60;;;-0.40;68.50;;;;;;4968620;28;20034;-62
2024/01/13 02:14:08;;;;;;;43.90;19.75;;;-0.40;68.80;;;;;;4970074;28;20038;-62
2024/01/13 02:16:34;;;;;;;42.22;19.70;;;-0.50;68.90;;;;;;4882742;28;20014;-63
2024/01/13 02:19:00;;;;;;;51.92;20.38;;;-0.40;69.10;;;;;;4966901;28;20503;-61
2024/01/13 02:21:25;;;;;;;50.83;21.48;;;-0.40;69.20;;;;;;4966669;28;20066;-63
2024/01/13 02:23:51;;;;;;;46.55;19.65;;;-0.40;69.30;;;;;;4950653;28;20038;-62
2024/01/13 02:26:17;;;;;;;51.65;22.63;;;-0.40;69.20;;;;;;4971483;28;20031;-61
2024/01/13 02:28:43;;;;;;;51.28;22.17;;;-0.20;69.30;;;;;;4969274;28;20078;-62
2024/01/13 02:31:08;;;;;;;49.80;21.15;;;-0.40;68.90;;;;;;4966077;28;20019;-61
2024/01/13 02:33:34;;;;;;;45.05;20.60;;;-0.40;68.80;;;;;;4972621;28;20034;-62
2024/01/13 02:35:59;;;;;;;49.53;21.10;;;-0.40;68.90;;;;;;4968910;28;20027;-61
2024/01/13 02:38:25;;;;;;;55.53;22.42;;;-0.40;69.10;;;;;;4966994;28;20058;-61
2024/01/13 02:40:51;;;;;;;50.30;21.25;;;-0.40;69.10;;;;;;4974348;28;20065;-61
2024/01/13 02:43:17;;;;;;;55.53;23.35;;;-0.30;69.20;;;;;;4968238;28;20456;-60
2024/01/13 02:45:43;;;;;;;52.40;22.92;;;-0.40;68.70;;;;;;4967077;28;20030;-62
2024/01/13 02:48:14;;;;;;;52.65;22.30;;;-0.30;68.80;;;;;;4964324;28;20026;-62
2024/01/13 02:50:39;;;;;;;50.78;19.65;;;-0.20;69.00;;;;;;4969841;28;20126;-61
2024/01/13 02:53:05;;;;;;;51.30;22.15;;;-0.30;69.00;;;;;;4968860;28;20109;-62
2024/01/13 02:55:31;;;;;;;54.00;20.70;;;-0.30;69.10;;;;;;4965759;28;20393;-62
2024/01/13 02:57:56;;;;;;;50.88;21.25;;;-0.30;68.80;;;;;;4966341;28;20035;-62
2024/01/13 03:00:22;;;;;;;51.40;20.42;;;-0.30;68.80;;;;;;4963845;28;20039;-62
2024/01/13 03:02:48;;;;;;;53.85;22.02;;;-0.40;68.70;;;;;;4970873;28;20158;-62
2024/01/13 03:05:14;;;;;;;41.97;18.70;;;-0.40;68.70;;;;;;4969014;28;20489;-62
2024/01/13 03:07:39;;;;;;;49.03;21.00;;;-0.40;68.70;;;;;;4970806;28;20073;-62
2024/01/13 03:10:06;;;;;;;54.63;21.98;;;-0.40;68.20;;;;;;4969258;28;20209;-62
2024/01/13 03:12:32;;;;;;;53.97;20.65;;;-0.40;68.40;;;;;;4966302;28;20030;-61
2024/01/13 03:14:58;;;;;;;47.85;20.48;;;-0.30;68.60;;;;;;4963037;28;20034;-61
2024/01/13 03:17:23;;;;;;;50.58;21.15;;;-0.50;68.50;;;;;;4965924;28;20569;-61
2024/01/13 03:19:49;;;;;;;54.60;24.00;;;-0.50;68.80;;;;;;4964863;28;20037;-62
2024/01/13 03:22:15;;;;;;;52.28;22.48;;;-0.40;69.40;;;;;;4969674;28;20389;-62
2024/01/13 03:24:40;;;;;;;54.95;23.83;;;-0.50;69.10;;;;;;4966296;28;20041;-61
2024/01/13 03:27:06;;;;;;;55.75;22.42;;;-0.50;69.20;;;;;;4947695;28;20049;-62
2024/01/13 03:29:31;;;;;;;56.00;21.98;;;-0.30;69.40;;;;;;4963483;28;20042;-62
2024/01/13 03:31:57;;;;;;;54.15;22.60;;;-0.50;69.30;;;;;;4965978;28;20030;-61
2024/01/13 03:34:23;;;;;;;52.42;22.30;;;-0.50;69.20;;;;;;4962821;28;20031;-61
2024/01/13 03:36:49;;;;;;;50.25;21.60;;;-0.50;69.30;;;;;;4966307;28;20466;-62
2024/01/13 03:39:15;;;;;;;55.58;22.13;;;-0.40;69.50;;;;;;4970696;28;20030;-61
2024/01/13 03:41:40;;;;;;;54.92;22.15;;;-0.40;69.30;;;;;;4968276;28;20481;-62
2024/01/13 03:44:06;;;;;;;57.90;22.98;;;-0.40;69.00;;;;;;4947107;28;20038;-62
2024/01/13 03:46:32;;;;;;;61.13;24.83;;;-0.40;69.00;;;;;;4965890;28;20035;-62
2024/01/13 03:48:57;;;;;;;55.58;22.90;;;-0.40;69.00;;;;;;4967870;28;20042;-62
2024/01/13 03:51:23;;;;;;;57.15;23.90;;;-0.40;68.50;;;;;;4969146;28;20093;-61
2024/01/13 03:53:48;;;;;;;52.83;22.52;;;-0.40;68.70;;;;;;4949662;28;20093;-61
2024/01/13 03:56:14;;;;;;;63.15;24.33;;;-0.40;68.70;;;;;;4964990;28;20027;-62
2024/01/13 03:58:40;;;;;;;54.45;23.40;;;-0.40;68.90;;;;;;4966450;28;20477;-62
2024/01/13 04:01:05;;;;;;;55.63;21.92;;;-0.50;68.80;;;;;;4966031;28;20026;-61
2024/01/13 04:03:32;;;;;;;52.00;22.30;;;-0.40;68.60;;;;;;4963878;28;20045;-62
2024/01/13 04:05:58;;;;;;;49.75;22.27;;;-0.40;68.60;;;;;;4949520;28;20125;-62
2024/01/13 04:08:24;;;;;;;48.92;20.67;;;-0.50;68.70;;;;;;4947468;28;20304;-63
2024/01/13 04:10:50;;;;;;;50.88;21.60;;;-0.30;69.00;;;;;;4965886;28;20038;-62
2024/01/13 04:13:16;;;;;;;55.42;22.35;;;-0.60;68.80;;;;;;4968583;28;20409;-62
2024/01/13 04:15:44;;;;;;;52.92;22.50;;;-0.60;68.70;;;;;;4889086;28;20651;-61
2024/01/13 04:18:11;;;;;;;48.65;21.55;;;-0.50;68.90;;;;;;4968456;28;20559;-62
2024/01/13 04:20:37;;;;;;;56.03;22.77;;;-0.60;68.90;;;;;;4964579;28;20023;-62
2024/01/13 04:23:02;;;;;;;51.92;21.33;;;-0.20;69.20;;;;;;4960506;28;20604;-61
2024/01/13 04:25:28;;;;;;;58.80;23.67;;;-0.50;68.90;;;;;;4967799;28;20097;-62
2024/01/13 04:27:54;;;;;;;60.75;24.63;;;-0.50;68.90;;;;;;4967737;28;20367;-61
2024/01/13 04:30:20;;;;;;;60.58;24.00;;;-0.50;69.00;;;;;;4963873;28;20027;-62
2024/01/13 04:32:46;;;;;;;57.35;25.13;;;-0.50;68.50;;;;;;4958677;28;20492;-61
2024/01/13 04:35:12;;;;;;;56.10;25.15;;;-0.50;68.50;;;;;;4963442;28;20106;-61
2024/01/13 04:37:38;;;;;;;54.78;21.98;;;-0.50;68.60;;;;;;4964473;28;20146;-62
2024/01/13 04:40:05;;;;;;;58.92;22.58;;;-0.60;68.60;;;;;;4969504;28;20370;-62
2024/01/13 04:42:33;;;;;;;56.88;24.08;;;-0.60;68.70;;;;;;4973817;28;20049;-63
2024/01/13 04:44:59;;;;;;;55.45;22.92;;;-0.60;68.40;;;;;;4967743;28;20042;-61
2024/01/13 04:47:26;;;;;;;52.00;21.45;;;-0.60;68.60;;;;;;4973442;28;20472;-61
2024/01/13 04:49:51;;;;;;;45.88;19.52;;;-0.50;68.70;;;;;;4968618;28;20429;-63
2024/01/13 04:52:17;;;;;;;49.60;21.80;;;-0.60;68.70;;;;;;4969186;28;20038;-62
2024/01/13 04:54:43;;;;;;;51.95;21.70;;;-0.70;68.90;;;;;;4952068;28;20027;-62
2024/01/13 04:57:08;;;;;;;52.22;21.20;;;-0.30;69.30;;;;;;4967826;28;20461;-62
2024/01/13 04:59:34;;;;;;;50.40;21.85;;;-0.60;69.20;;;;;;4968218;28;20042;-62
2024/01/13 05:02:00;;;;;;;50.00;21.65;;;-0.40;69.30;;;;;;4969546;28;20034;-62
2024/01/13 05:04:26;;;;;;;50.72;22.17;;;-0.50;69.20;;;;;;4932780;28;20031;-62
2024/01/13 05:06:52;;;;;;;41.80;18.95;;;-0.60;69.10;;;;;;4968047;28;20037;-61
2024/01/13 05:09:17;;;;;;;39.38;17.38;;;-0.60;68.70;;;;;;4972429;28;20038;-63
2024/01/13 05:11:43;;;;;;;33.47;15.93;;;-0.60;68.60;;;;;;4967931;28;20034;-61
2024/01/13 05:14:09;;;;;;;41.05;16.23;;;-0.60;68.50;;;;;;4968142;28;20038;-61
2024/01/13 05:16:34;;;;;;;41.22;17.33;;;-0.70;68.60;;;;;;4905537;28;20034;-62
2024/01/13 05:19:00;;;;;;;40.90;16.92;;;-0.70;68.70;;;;;;4967125;28;20039;-62
2024/01/13 05:21:26;;;;;;;37.13;15.85;;;-0.70;68.80;;;;;;4967471;28;20098;-62
2024/01/13 05:23:52;;;;;;;40.03;16.85;;;-0.70;69.00;;;;;;4967041;28;20030;-62
2024/01/13 05:26:17;;;;;;;42.88;16.73;;;-0.70;69.10;;;;;;4973514;28;20031;-62
2024/01/13 05:28:43;;;;;;;40.58;17.00;;;-0.70;68.80;;;;;;4972961;28;20034;-62
2024/01/13 05:31:08;;;;;;;40.88;16.50;;;-0.70;68.90;;;;;;4971091;28;20030;-63
2024/01/13 05:33:34;;;;;;;43.92;17.23;;;-0.50;68.80;;;;;;4973081;28;20026;-62
2024/01/13 05:36:00;;;;;;;41.17;16.92;;;-0.70;68.80;;;;;;4970957;28;20038;-60
2024/01/13 05:38:26;;;;;;;42.75;18.35;;;-0.40;69.10;;;;;;4966617;28;20633;-62
2024/01/13 05:40:52;;;;;;;50.30;18.75;;;-0.60;69.20;;;;;;4969241;28;23330;-61
2024/01/13 05:43:18;;;;;;;36.28;17.15;;;-0.60;68.90;;;;;;4951861;28;20109;-62
2024/01/13 05:45:44;;;;;;;47.33;18.17;;;-0.70;68.80;;;;;;4968920;28;20033;-62
2024/01/13 05:48:10;;;;;;;44.25;18.20;;;-0.40;69.10;;;;;;4973539;28;20042;-63
2024/01/13 05:50:36;;;;;;;48.03;18.95;;;-0.60;69.00;;;;;;4966993;28;20039;-61
2024/01/13 05:53:01;;;;;;;43.38;17.77;;;-0.60;69.10;;;;;;4969492;28;20037;-63
2024/01/13 05:55:27;;;;;;;46.67;17.42;;;-0.60;69.00;;;;;;4968846;28;20070;-62
2024/01/13 05:57:53;;;;;;;44.92;18.55;;;-0.60;69.00;;;;;;4966554;28;20054;-61
2024/01/13 06:00:18;;;;;;;41.83;18.38;;;-0.60;69.00;;;;;;4964660;28;20026;-61
2024/01/13 06:02:44;;;;;;;41.90;19.63;;;-0.40;69.10;;;;;;4969615;28;20035;-61
2024/01/13 06:05:10;;;;;;;41.90;18.55;;;-0.60;69.00;;;;;;4967436;28;20049;-62
2024/01/13 06:07:37;;;;;;;43.83;17.85;;;-0.60;68.90;;;;;;4966817;28;20537;-61
2024/01/13 06:10:03;;;;;;;45.33;18.45;;;-0.60;68.80;;;;;;4966988;28;20478;-61
2024/01/13 06:12:28;;;;;;;46.97;19.73;;;-0.60;68.80;;;;;;4969296;28;20023;-61
2024/01/13 06:14:57;;;;;;;43.13;19.08;;;-0.40;69.10;;;;;;4976066;28;20046;-59
2024/01/13 06:17:23;;;;;;;44.08;18.60;;;-0.50;69.10;;;;;;4910109;28;20034;-61
2024/01/13 06:19:48;;;;;;;47.08;18.98;;;-0.50;69.10;;;;;;4965641;28;20579;-62
2024/01/13 06:22:14;;;;;;;47.22;19.23;;;-0.30;69.20;;;;;;4965725;28;20031;-61
2024/01/13 06:24:40;;;;;;;43.53;19.02;;;-0.50;68.90;;;;;;4967802;28;20584;-63
2024/01/13 06:27:06;;;;;;;47.85;20.38;;;-0.40;68.90;;;;;;4971006;28;20037;-61
2024/01/13 06:29:31;;;;;;;42.42;20.00;;;-0.50;68.90;;;;;;4965316;28;20042;-61
2024/01/13 06:31:57;;;;;;;46.50;22.02;;;-0.30;69.00;;;;;;4968277;28;20038;-63
2024/01/13 06:34:23;;;;;;;48.90;20.65;;;-0.40;69.00;;;;;;4963078;28;20049;-62
2024/01/13 06:36:48;;;;;;;45.15;20.58;;;-0.40;68.90;;;;;;4992370;28;20091;-63
2024/01/13 06:39:14;;;;;;;47.25;21.73;;;-0.40;69.50;;;;;;4997008;28;20045;-62
2024/01/13 06:41:40;;;;;;;44.30;19.33;;;-0.40;68.70;;;;;;4996752;28;20037;-63
2024/01/13 06:44:05;;;;;;;49.78;20.75;;;-0.40;68.70;;;;;;4989735;28;20097;-61
2024/01/13 06:46:31;;;;;;;42.20;18.95;;;-0.40;68.60;;;;;;4991239;28;20031;-62
2024/01/13 06:48:57;;;;;;;46.58;19.63;;;-0.40;68.50;;;;;;4985866;28;20050;-62
2024/01/13 06:51:22;;;;;;;51.65;23.17;;;-0.40;68.70;;;;;;4971548;28;20472;-62
2024/01/13 06:53:48;;;;;;;48.75;22.10;;;-0.30;68.80;;;;;;4964066;28;20525;-63
2024/01/13 06:56:14;;;;;;;48.83;20.65;;;-0.20;68.90;;;;;;4950322;28;20031;-61
2024/01/13 06:58:39;;;;;;;53.92;20.40;;;-0.40;68.90;;;;;;4962397;28;20085;-60
2024/01/13 07:01:05;;;;;;;53.40;21.90;;;-0.20;69.00;;;;;;4965988;28;20498;-62
2024/01/13 07:03:31;;;;;;;46.45;19.60;;;-0.20;68.90;;;;;;4964865;28;20045;-61
2024/01/13 07:05:57;;;;;;;48.25;19.80;;;-0.40;68.70;;;;;;4951194;28;20034;-62
2024/01/13 07:08:22;;;;;;;52.03;20.20;;;-0.30;68.70;;;;;;4966592;28;20034;-62
2024/01/13 07:10:50;;;;;;;46.53;18.42;;;-0.40;68.50;;;;;;4968996;28;20134;-63
2024/01/13 07:13:17;;;;;;;49.63;19.52;;;-0.40;68.50;;;;;;4969712;28;20034;-63
2024/01/13 07:15:43;;;;;;;55.35;22.10;;;-0.40;68.40;;;;;;4886945;28;20705;-62
2024/01/13 07:18:08;;;;;;;51.25;20.40;;;-0.40;68.60;;;;;;4961740;28;20031;-62
2024/01/13 07:20:34;;;;;;;51.30;21.60;;;-0.40;68.70;;;;;;4967007;28;20086;-61
2024/01/13 07:23:00;;;;;;;56.78;23.00;;;-0.40;68.90;;;;;;4967921;28;20473;-62
2024/01/13 07:25:25;;;;;;;54.33;21.63;;;-0.40;68.90;;;;;;4965893;28;20563;-63
2024/01/13 07:27:51;;;;;;;49.25;19.55;;;-0.40;68.70;;;;;;4975038;28;20640;-64
2024/01/13 07:30:17;;;;;;;52.10;21.27;;;-0.40;68.70;;;;;;4966222;28;20497;-64
2024/01/13 07:32:42;;;;;;;49.78;20.23;;;-0.40;68.80;;;;;;4964770;28;20458;-63
2024/01/13 07:35:09;;;;;;;52.47;20.42;;;-0.30;69.00;;;;;;4971245;28;20137;-63
2024/01/13 07:37:34;;;;;;;49.83;21.13;;;-0.40;68.90;;;;;;4963973;28;20045;-63
2024/01/13 07:40:00;;;;;;;51.70;21.02;;;-0.10;69.20;;;;;;4965244;28;20057;-62
2024/01/13 07:42:25;;;;;;;55.28;21.95;;;-0.40;69.10;;;;;;4968144;28;20046;-63
2024/01/13 07:44:51;;;;;;;49.17;20.83;;;-0.20;69.20;;;;;;4966795;28;20421;-63
2024/01/13 07:47:17;;;;;;;55.78;21.08;;;-0.40;68.90;;;;;;4966785;28;20393;-62
2024/01/13 07:49:42;;;;;;;56.20;21.85;;;-0.30;69.00;;;;;;4965217;28;20074;-63
2024/01/13 07:52:09;;;;;;;58.00;22.10;;;-0.40;69.00;;;;;;4967181;28;20027;-63
2024/01/13 07:54:35;;;;;;;57.10;21.67;;;-0.40;69.00;;;;;;4969093;28;20039;-63
2024/01/13 07:57:01;;;;;;;53.35;21.10;;;-0.30;69.10;;;;;;4967716;28;20031;-64
2024/01/13 07:59:27;;;;;;;56.70;20.65;;;-0.30;69.20;;;;;;4967541;28;20038;-63
2024/01/13 08:01:52;;;;;;;56.53;21.05;;;-0.30;69.10;;;;;;4963566;28;20400;-62
2024/01/13 08:04:18;;;;;;;55.88;21.13;;;-0.10;69.20;;;;;;4968520;28;20178;-63
2024/01/13 08:06:44;;;;;;;55.17;21.50;;;-0.30;69.00;;;;;;4964481;28;20085;-63
2024/01/13 08:09:10;;;;;;;56.50;23.23;;;-0.20;68.90;;;;;;4966178;28;20141;-63
2024/01/13 08:11:36;;;;;;;59.78;22.27;;;-0.10;69.10;;;;;;4963086;28;20023;-62
2024/01/13 08:14:02;;;;;;;61.70;24.48;;;-0.20;69.00;;;;;;4968198;28;20444;-63
2024/01/13 08:16:29;;;;;;;63.75;26.23;;;-0.20;68.90;;;;;;4967755;28;20069;-63
2024/01/13 08:18:55;;;;;;;67.47;27.02;;;-0.20;69.00;;;;;;4940361;28;20090;-63
2024/01/13 08:21:21;;;;;;;69.68;29.33;;;-0.10;69.10;;;;;;4974329;28;20569;-63
2024/01/13 08:23:48;;;;;;;73.13;30.02;;;-0.20;68.90;;;;;;4966917;28;20031;-63
2024/01/13 08:26:13;;;;;;;76.18;29.60;;;0.00;69.00;;;;;;4972287;28;20086;-63
2024/01/13 08:28:39;;;;;;;76.55;28.88;;;-0.30;68.60;;;;;;4976385;28;20057;-63
2024/01/13 08:31:05;;;;;;;73.38;28.83;;;-0.30;68.50;;;;;;4955065;28;20074;-63
2024/01/13 08:33:31;;;;;;;81.88;31.30;;;-0.40;69.00;;;;;;4971355;28;20123;-63
2024/01/13 08:35:56;;;;;;;76.03;30.42;;;-0.30;68.20;;;;;;4972284;28;20477;-63
2024/01/13 08:38:22;;;;;;;72.32;28.40;;;-0.40;68.10;;;;;;4968645;28;20451;-63
2024/01/13 08:40:48;;;;;;;84.38;31.02;;;-0.50;68.10;;;;;;4954241;28;20037;-63
2024/01/13 08:43:13;;;;;;;74.28;27.98;;;-0.60;68.20;;;;;;4973564;28;20035;-63
2024/01/13 08:45:39;;;;;;;76.50;30.83;;;-0.60;68.60;;;;;;4969921;28;20035;-63
2024/01/13 08:48:05;;;;;;;78.63;28.45;;;-0.60;68.60;;;;;;4972951;28;20120;-63
2024/01/13 08:50:34;;;;;;;74.40;28.80;;;-0.60;68.30;;;;;;4969168;28;20042;-63
2024/01/13 08:52:59;;;;;;;64.75;23.77;;;-0.60;68.40;;;;;;4967560;28;20516;-63
2024/01/13 08:55:25;;;;;;;66.95;28.23;;;-0.70;68.30;;;;;;4969395;28;20035;-62
2024/01/13 08:57:51;;;;;;;79.47;29.70;;;-0.50;68.40;;;;;;4968005;28;20460;-64
2024/01/13 09:00:17;;;;;;;79.32;31.58;;;-0.80;68.60;;;;;;4968509;28;20422;-63
2024/01/13 09:02:43;;;;;;;77.10;29.33;;;-0.80;68.80;;;;;;4975291;28;20396;-63
2024/01/13 09:05:09;;;;;;;80.22;29.52;;;-0.50;69.10;;;;;;4970774;28;20100;-63
2024/01/13 09:07:36;;;;;;;79.95;29.95;;;-0.70;69.20;;;;;;4970312;28;20033;-62
2024/01/13 09:10:02;;;;;;;77.28;30.33;;;-0.70;69.40;;;;;;4967016;28;20100;-62
2024/01/13 09:12:29;;;;;;;78.47;29.25;;;-0.70;69.20;;;;;;4968817;28;20054;-63
2024/01/13 09:14:55;;;;;;;73.47;29.35;;;-0.60;69.20;;;;;;4967147;28;20146;-63
2024/01/13 09:17:21;;;;;;;79.13;30.30;;;-0.60;69.10;;;;;;4972347;28;20536;-64
2024/01/13 09:19:47;;;;;;;74.55;29.50;;;-0.50;68.80;;;;;;4970420;28;20085;-63
2024/01/13 09:22:13;;;;;;;75.90;28.63;;;-0.40;68.90;;;;;;4973856;28;20492;-64
2024/01/13 09:24:41;;;;;;;80.75;29.38;;;-0.50;68.60;;;;;;4967153;28;20022;-64
2024/01/13 09:27:06;;;;;;;73.57;31.15;;;-0.50;68.70;;;;;;4968655;28;20103;-63
2024/01/13 09:29:32;;;;;;;88.28;34.00;;;-0.50;68.70;;;;;;4966865;28;20143;-63
2024/01/13 09:31:59;;;;;;;86.55;33.08;;;-0.20;69.00;;;;;;4968138;28;20396;-64
2024/01/13 09:34:24;;;;;;;78.65;29.33;;;-0.40;68.80;;;;;;4967871;28;20030;-63
2024/01/13 09:36:51;;;;;;;77.25;30.27;;;-0.30;68.80;;;;;;4965648;28;20052;-63
2024/01/13 09:39:17;;;;;;;70.95;28.58;;;-0.30;69.00;;;;;;4965901;28;20113;-61
2024/01/13 09:41:44;;;;;;;75.70;29.67;;;-0.40;69.00;;;;;;4970045;28;20450;-63
2024/01/13 09:44:27;;;;;;;72.60;29.40;;;-0.10;69.20;;;;;;4968409;28;20038;-62
2024/01/13 09:46:55;;;;;;;70.05;29.15;;;-0.20;69.10;;;;;;4973039;28;20037;-63
2024/01/13 09:49:26;;;;;;;79.53;29.42;;;-0.20;69.00;;;;;;4973904;28;20034;-62
2024/01/13 09:51:52;;;;;;;77.70;32.70;;;-0.10;69.00;;;;;;4970334;28;20033;-64
2024/01/13 09:54:23;;;;;;;79.82;31.75;;;-0.10;68.90;;;;;;4971700;28;20023;-62
2024/01/13 09:56:49;;;;;;;71.72;28.95;;;0.00;68.90;;;;;;4950116;28;20126;-62
2024/01/13 09:59:15;;;;;;;91.80;32.63;;;0.00;68.80;;;;;;4968573;28;20031;-62
2024/01/13 10:01:41;;;;;;;78.85;31.33;;;0.20;68.80;;;;;;4951963;28;20569;-62
2024/01/13 10:04:08;;;;;;;77.35;30.92;;;0.30;68.90;;;;;;4968093;28;20027;-62
2024/01/13 10:06:37;;;;;;;77.00;30.73;;;0.20;68.90;;;;;;4968197;28;20030;-63
2024/01/13 10:09:03;;;;;;;82.47;31.83;;;0.20;68.80;;;;;;4965572;28;20505;-62
2024/01/13 10:11:29;;;;;;;80.32;30.15;;;0.30;68.70;;;;;;4970636;28;20101;-63
2024/01/13 10:14:02;;;;;;;75.13;30.92;;;0.40;68.50;;;;;;4968789;28;20150;-62
2024/01/13 10:16:30;;;;;;;77.25;29.90;;;0.40;68.40;;;;;;4969395;28;20038;-62
2024/01/13 10:19:00;;;;;;;67.15;28.08;;;0.40;68.20;;;;;;4974479;28;20046;-63
2024/01/13 10:21:26;;;;;;;76.50;28.80;;;0.40;68.20;;;;;;4964549;28;20038;-62
2024/01/13 10:23:56;;;;;;;74.05;30.27;;;0.50;68.20;;;;;;4968467;28;20023;-62
2024/01/13 10:26:23;;;;;;;75.00;30.23;;;0.80;68.40;;;;;;4968728;28;21411;-62
2024/01/13 10:28:50;;;;;;;74.43;29.60;;;0.60;68.30;;;;;;4972442;28;20584;-62
2024/01/13 10:31:20;;;;;;;75.30;30.33;;;0.60;68.30;;;;;;4963384;28;20601;-62
2024/01/13 10:33:49;;;;;;;70.70;29.52;;;0.60;68.10;;;;;;4975182;28;20041;-62
2024/01/13 10:36:16;;;;;;;76.57;31.10;;;0.70;68.10;;;;;;4964902;28;20125;-63
2024/01/13 10:38:43;;;;;;;79.65;32.47;;;0.70;68.00;;;;;;4966965;28;20069;-62
2024/01/13 10:41:09;;;;;;;65.97;27.25;;;0.70;67.90;;;;;;4970283;28;20137;-63
2024/01/13 10:43:41;;;;;;;69.53;29.10;;;0.80;68.00;;;;;;4967800;28;20031;-62
2024/01/13 10:46:12;;;;;;;63.78;26.33;;;0.80;68.00;;;;;;4877539;28;20382;-63
2024/01/13 10:48:46;;;;;;;59.83;21.63;;;0.80;68.00;;;;;;4966035;28;21323;-63
2024/01/13 10:51:33;;;;;;;52.00;19.73;;;0.80;67.90;;;;;;4965190;28;20044;-63
2024/01/13 10:54:00;;;;;;;48.15;20.30;;;0.80;67.60;;;;;;4947452;28;20111;-64
2024/01/13 10:56:27;;;;;;;45.67;18.65;;;0.80;67.60;;;;;;4954590;28;20026;-63
2024/01/13 10:58:54;;;;;;;44.38;19.40;;;0.80;67.70;;;;;;4962358;28;20042;-64
2024/01/13 11:01:20;;;;;;;49.58;19.70;;;0.80;67.70;;;;;;4968909;28;20026;-61
2024/01/13 11:03:49;;;;;;;52.75;22.55;;;0.70;67.80;;;;;;4969854;28;20030;-63
2024/01/13 11:06:15;;;;;;;55.05;22.83;;;0.70;67.90;;;;;;4963405;28;20121;-64
2024/01/13 11:08:42;;;;;;;48.63;19.77;;;0.70;67.50;;;;;;4964124;28;20669;-64
2024/01/13 11:11:09;;;;;;;57.75;22.45;;;0.70;67.60;;;;;;4964114;28;20027;-63
2024/01/13 11:13:44;;;;;;;51.03;21.80;;;0.70;67.50;;;;;;4967656;28;20030;-63
2024/01/13 11:16:14;;;;;;;58.90;22.60;;;0.70;67.60;;;;;;4965889;28;20055;-63
2024/01/13 11:18:48;;;;;;;48.67;20.77;;;0.60;67.40;;;;;;4966588;28;20060;-63
2024/01/13 11:21:16;;;;;;;;;;;0.60;67.40;;;;;;4966326;28;20069;-63
2024/01/13 11:23:46;;;;;;;41.42;17.33;;;0.60;67.40;;;;;;4963810;28;19914;-64
2024/01/13 11:26:16;;;;;;;40.35;17.65;;;0.60;67.30;;;;;;4970460;28;20022;-61
2024/01/13 11:28:51;;;;;;;43.65;17.85;;;0.60;67.40;;;;;;4968134;28;20026;-62
2024/01/13 11:31:40;;;;;;;43.25;18.02;;;0.60;67.40;;;;;;4947581;28;20037;-64
2024/01/13 11:34:07;;;;;;;43.90;18.73;;;0.50;67.40;;;;;;4968043;28;20161;-62
2024/01/13 11:36:34;;;;;;;37.90;16.33;;;0.50;67.30;;;;;;4967911;28;20027;-63
2024/01/13 11:39:01;;;;;;;40.30;20.00;;;0.50;67.30;;;;;;4962257;28;20037;-63
2024/01/13 11:41:49;;;;;;;46.15;18.42;;;0.40;67.10;;;;;;4970839;28;20035;-63
2024/01/13 11:44:22;;;;;;;41.45;18.98;;;0.40;67.40;;;;;;4965238;28;20138;-63
2024/01/13 11:47:11;;;;;;;42.72;18.10;;;0.30;67.30;;;;;;4963909;28;20023;-63
2024/01/13 11:49:39;;;;;;;49.80;18.58;;;0.40;67.50;;;;;;4956014;28;20062;-64
2024/01/13 11:52:14;;;;;;;47.38;17.52;;;0.20;67.30;;;;;;4967741;28;20034;-62
2024/01/13 11:54:41;;;;;;;46.38;19.13;;;0.20;67.30;;;;;;4970588;28;20030;-64
2024/01/13 11:57:11;;;;;;;38.63;16.27;;;0.40;67.60;;;;;;4967983;28;20058;-63
2024/01/13 11:59:38;;;;;;;40.35;16.63;;;0.10;67.40;;;;;;4970326;28;20034;-64
2024/01/13 12:02:04;;;;;;;36.97;16.52;;;0.30;67.80;;;;;;4970679;28;20114;-63
2024/01/13 12:04:31;;;;;;;36.33;16.20;;;0.10;67.90;;;;;;4967892;28;20035;-62
2024/01/13 12:06:58;;;;;;;41.17;16.70;;;0.20;67.80;;;;;;4967946;28;20049;-62
2024/01/13 12:09:28;;;;;;;39.95;17.75;;;0.20;67.90;;;;;;4959240;28;20102;-62
2024/01/13 12:11:55;;;;;;;44.13;17.23;;;0.30;67.90;;;;;;4964014;28;20035;-65
2024/01/13 12:14:29;;;;;;;36.05;15.48;;;0.20;67.90;;;;;;4967094;28;20038;-62
2024/01/13 12:16:58;;;;;;;40.03;17.30;;;0.10;67.60;;;;;;4970081;28;20084;-63
2024/01/13 12:19:29;;;;;;;41.95;16.92;;;0.10;67.70;;;;;;4970037;28;20039;-64
2024/01/13 12:21:55;;;;;;;43.47;18.20;;;0.10;67.70;;;;;;4968577;28;20430;-63
2024/01/13 12:24:28;;;;;;;44.25;17.33;;;0.20;67.70;;;;;;4972275;28;20034;-63
2024/01/13 12:26:54;;;;;;;54.67;19.13;;;0.10;67.90;;;;;;4965968;28;20049;-63